createdAt,value
2022-12-19T00:03:26.203Z,0.00
2022-12-19T00:08:26.025Z,0.00
2022-12-19T00:13:25.965Z,0.00
2022-12-19T00:18:25.906Z,0.00
2022-12-19T00:23:25.856Z,0.00
2022-12-19T00:28:25.793Z,0.00
2022-12-19T00:33:25.741Z,0.00
2022-12-19T00:38:25.684Z,0.00
2022-12-19T00:43:25.624Z,0.00
2022-12-19T00:48:25.577Z,0.00
2022-12-19T00:53:25.513Z,0.00
2022-12-19T00:58:25.454Z,0.00
2022-12-19T01:03:25.392Z,0.00
2022-12-19T01:08:25.348Z,0.00
2022-12-19T01:13:25.271Z,0.00
2022-12-19T01:18:25.245Z,0.00
2022-12-19T01:23:25.162Z,0.00
2022-12-19T01:28:25.116Z,0.00
2022-12-19T01:33:25.056Z,0.00
2022-12-19T01:38:24.997Z,0.00
2022-12-19T01:43:24.940Z,0.00
2022-12-19T01:48:24.876Z,0.00
2022-12-19T01:53:24.808Z,0.00
2022-12-19T01:58:24.724Z,0.00
2022-12-19T02:03:24.707Z,0.00
2022-12-19T02:08:24.608Z,0.00
2022-12-19T02:13:24.548Z,0.00
2022-12-19T02:18:24.500Z,0.00
2022-12-19T02:23:24.432Z,0.00
2022-12-19T02:28:24.387Z,0.00
2022-12-19T02:33:24.331Z,0.00
2022-12-19T02:38:24.278Z,0.00
2022-12-19T02:43:24.212Z,0.00
2022-12-19T02:48:24.163Z,0.00
2022-12-19T02:53:24.299Z,0.00
2022-12-19T02:58:24.072Z,0.00
2022-12-19T03:03:24.011Z,0.00
2022-12-19T03:08:23.941Z,0.00
2022-12-19T03:13:23.885Z,0.00
2022-12-19T03:18:23.865Z,0.00
2022-12-19T03:23:23.782Z,0.00
2022-12-19T03:28:23.750Z,0.00
2022-12-19T03:33:23.654Z,0.00
2022-12-19T03:38:23.599Z,0.00
2022-12-19T03:43:23.541Z,0.00
2022-12-19T03:48:23.506Z,0.00
2022-12-19T03:53:23.427Z,0.00
2022-12-19T03:58:23.369Z,0.00
2022-12-19T04:03:23.360Z,0.00
2022-12-19T04:08:23.263Z,0.00
2022-12-19T04:13:23.193Z,0.00
2022-12-19T04:18:23.147Z,0.00
2022-12-19T04:23:23.098Z,0.00
2022-12-19T04:28:23.034Z,0.00
2022-12-19T04:33:22.962Z,0.00
2022-12-19T04:38:22.913Z,0.00
2022-12-19T04:43:22.851Z,0.00
2022-12-19T04:48:22.810Z,0.00
2022-12-19T04:53:22.740Z,0.00
2022-12-19T04:58:22.679Z,0.00
2022-12-19T05:03:22.636Z,0.00
2022-12-19T05:08:22.558Z,0.00
2022-12-19T05:13:22.501Z,0.00
2022-12-19T05:18:22.454Z,0.00
2022-12-19T05:23:22.385Z,0.00
2022-12-19T05:28:22.345Z,1.00
2022-12-19T05:33:22.254Z,7.00
2022-12-19T05:38:22.232Z,12.00
2022-12-19T05:43:22.150Z,20.00
2022-12-19T05:48:22.091Z,26.00
2022-12-19T05:53:25.958Z,32.00
2022-12-19T05:58:21.972Z,38.00
2022-12-19T06:03:21.972Z,44.00
2022-12-19T06:08:21.855Z,50.00
2022-12-19T06:13:25.017Z,57.00
2022-12-19T06:18:21.745Z,62.00
2022-12-19T06:23:21.673Z,63.00
2022-12-19T06:28:21.615Z,64.00
2022-12-19T06:33:21.564Z,63.00
2022-12-19T06:38:21.501Z,64.00
2022-12-19T06:43:21.446Z,66.00
2022-12-19T06:48:21.385Z,66.00
2022-12-19T06:53:21.329Z,68.00
2022-12-19T06:58:24.211Z,68.00
2022-12-19T07:03:21.202Z,70.00
2022-12-19T07:08:21.152Z,70.00
2022-12-19T07:13:21.079Z,69.00
2022-12-19T07:18:21.030Z,69.00
2022-12-19T07:23:20.968Z,69.00
2022-12-19T07:28:20.928Z,69.00
2022-12-19T07:33:21.979Z,67.00
2022-12-19T07:38:20.799Z,66.00
2022-12-19T07:43:20.733Z,64.00
2022-12-19T07:48:20.680Z,64.00
2022-12-19T07:53:20.627Z,63.00
2022-12-19T07:58:20.875Z,62.00
2022-12-19T08:03:20.561Z,64.00
2022-12-19T08:08:20.444Z,65.00
2022-12-19T08:13:20.384Z,65.00
2022-12-19T08:18:20.345Z,65.00
2022-12-19T08:23:20.274Z,67.00
2022-12-19T08:28:20.213Z,68.00
2022-12-19T08:33:20.154Z,69.00
2022-12-19T08:38:20.092Z,69.00
2022-12-19T08:43:20.042Z,69.00
2022-12-19T08:48:19.983Z,70.00
2022-12-19T08:53:25.867Z,69.00
2022-12-19T08:58:20.873Z,68.00
2022-12-19T09:03:19.959Z,69.00
2022-12-19T09:08:19.762Z,69.00
2022-12-19T09:13:19.682Z,68.00
2022-12-19T09:18:19.643Z,68.00
2022-12-19T09:23:19.571Z,68.00
2022-12-19T09:28:27.847Z,67.00
2022-12-19T09:33:20.470Z,68.00
2022-12-19T09:38:19.371Z,67.00
2022-12-19T09:43:19.316Z,67.00
2022-12-19T09:48:24.410Z,67.00
2022-12-19T09:53:20.222Z,67.00
2022-12-19T09:58:19.160Z,68.00
2022-12-19T10:03:19.260Z,67.00
2022-12-19T10:08:19.044Z,68.00
2022-12-19T10:13:18.960Z,69.00
2022-12-19T10:18:18.919Z,70.00
2022-12-19T10:23:18.869Z,69.00
2022-12-19T10:28:18.814Z,69.00
2022-12-19T10:33:20.592Z,70.00
2022-12-19T10:38:18.698Z,70.00
2022-12-19T10:43:27.272Z,69.00
2022-12-19T10:48:19.724Z,69.00
2022-12-19T10:53:18.497Z,72.00
2022-12-19T10:58:18.466Z,73.00
2022-12-19T11:03:19.377Z,73.00
2022-12-19T11:08:18.329Z,73.00
2022-12-19T11:19:13.472Z,75.00
2022-12-19T11:26:43.651Z,76.00
2022-12-19T11:29:54.951Z,75.00
2022-12-19T11:30:05.777Z,75.00
2022-12-19T11:33:19.189Z,74.00
2022-12-19T11:38:17.956Z,73.00
2022-12-19T11:48:18.849Z,72.00
2022-12-19T11:53:19.472Z,70.00
2022-12-19T11:58:17.740Z,70.00
2022-12-19T12:03:17.716Z,69.00
2022-12-19T12:10:42.225Z,70.00
2022-12-19T12:21:46.700Z,70.00
2022-12-19T12:31:07.884Z,71.00
2022-12-19T12:31:18.281Z,71.00
2022-12-19T12:31:40.239Z,71.00
2022-12-19T12:35:33.637Z,69.00
2022-12-19T12:38:25.020Z,68.00
2022-12-19T12:43:18.173Z,70.00
2022-12-19T12:48:17.124Z,70.00
2022-12-19T12:53:17.058Z,70.00
2022-12-19T12:58:20.820Z,69.00
2022-12-19T13:03:17.965Z,70.00
2022-12-19T13:08:16.879Z,70.00
2022-12-19T13:13:22.524Z,70.00
2022-12-19T13:18:17.755Z,71.00
2022-12-19T13:23:16.693Z,72.00
2022-12-19T13:28:16.643Z,73.00
2022-12-19T13:33:16.569Z,71.00
2022-12-19T13:40:00.347Z,71.00
2022-12-19T13:43:17.440Z,71.00
2022-12-19T13:48:16.394Z,73.00
2022-12-19T13:53:16.332Z,73.00
2022-12-19T13:58:16.263Z,71.00
2022-12-19T14:03:16.359Z,72.00
2022-12-19T14:08:16.147Z,71.00
2022-12-19T14:13:36.918Z,70.00
2022-12-19T14:18:41.905Z,70.00
2022-12-19T14:23:16.966Z,70.00
2022-12-19T14:28:29.082Z,70.00
2022-12-19T14:33:44.838Z,71.00
2022-12-19T14:39:22.152Z,70.00
2022-12-19T14:43:56.904Z,70.00
2022-12-19T14:54:08.207Z,70.00
2022-12-19T14:54:31.519Z,70.00
2022-12-19T14:58:52.324Z,70.00
2022-12-19T15:03:16.648Z,71.00
2022-12-19T15:08:15.422Z,71.00
2022-12-19T15:14:46.907Z,72.00
2022-12-19T15:18:16.289Z,72.00
2022-12-19T15:23:21.487Z,70.00
2022-12-19T15:28:16.174Z,71.00
2022-12-19T15:33:15.122Z,70.00
2022-12-19T15:38:15.052Z,71.00
2022-12-19T15:43:53.036Z,69.00
2022-12-19T15:48:15.962Z,69.00
2022-12-19T15:53:22.317Z,69.00
2022-12-19T15:58:15.834Z,68.00
2022-12-19T16:03:23.399Z,68.00
2022-12-19T16:08:15.707Z,68.00
2022-12-19T16:13:14.643Z,69.00
2022-12-19T16:18:14.566Z,70.00
2022-12-19T16:23:14.538Z,68.00
2022-12-19T16:28:14.780Z,70.00
2022-12-19T16:33:14.380Z,70.00
2022-12-19T16:38:14.327Z,70.00
2022-12-19T16:43:14.310Z,70.00
2022-12-19T16:48:14.212Z,70.00
2022-12-19T16:53:14.151Z,70.00
2022-12-19T16:58:14.089Z,70.00
2022-12-19T17:03:14.110Z,70.00
2022-12-19T17:08:13.966Z,71.00
2022-12-19T17:13:13.897Z,74.00
2022-12-19T17:18:13.828Z,73.00
2022-12-19T17:23:13.786Z,74.00
2022-12-19T17:28:13.706Z,74.00
2022-12-19T17:33:13.656Z,76.00
2022-12-19T17:38:13.593Z,75.00
2022-12-19T17:43:13.562Z,76.00
2022-12-19T17:48:13.475Z,75.00
2022-12-19T17:53:13.415Z,75.00
2022-12-19T17:58:13.350Z,74.00
2022-12-19T18:03:13.478Z,72.00
2022-12-19T18:08:13.229Z,71.00
2022-12-19T18:13:13.186Z,72.00
2022-12-19T18:18:13.107Z,72.00
2022-12-19T18:23:13.046Z,70.00
2022-12-19T18:28:13.014Z,71.00
2022-12-19T18:33:12.924Z,70.00
2022-12-19T18:38:12.875Z,70.00
2022-12-19T18:43:13.114Z,68.00
2022-12-19T18:48:12.769Z,68.00
2022-12-19T18:53:12.683Z,67.00
2022-12-19T18:58:12.645Z,69.00
2022-12-19T19:03:12.781Z,70.00
2022-12-19T19:08:12.502Z,68.00
2022-12-19T19:13:12.462Z,69.00
2022-12-19T19:18:12.383Z,69.00
2022-12-19T19:23:12.335Z,68.00
2022-12-19T19:28:12.264Z,68.00
2022-12-19T19:33:12.219Z,70.00
2022-12-19T19:38:12.146Z,71.00
2022-12-19T19:43:12.095Z,71.00
2022-12-19T19:48:12.035Z,70.00
2022-12-19T19:53:11.966Z,69.00
2022-12-19T19:58:11.912Z,70.00
2022-12-19T20:03:16.815Z,71.00
2022-12-19T20:08:12.801Z,72.00
2022-12-19T20:13:11.780Z,73.00
2022-12-19T20:18:11.669Z,71.00
2022-12-19T20:23:11.613Z,70.00
2022-12-19T20:28:11.564Z,69.00
2022-12-19T20:33:11.501Z,69.00
2022-12-19T20:38:11.431Z,71.00
2022-12-19T20:43:11.399Z,71.00
2022-12-19T20:48:11.311Z,71.00
2022-12-19T20:53:11.257Z,71.00
2022-12-19T20:58:11.193Z,72.00
2022-12-19T21:03:31.777Z,72.00
2022-12-19T21:08:12.079Z,74.00
2022-12-19T21:13:11.010Z,76.00
2022-12-19T21:18:10.957Z,78.00
2022-12-19T21:23:10.889Z,79.00
2022-12-19T21:28:10.829Z,78.00
2022-12-19T21:33:10.779Z,76.00
2022-12-19T21:38:10.710Z,77.00
2022-12-19T21:43:12.273Z,76.00
2022-12-19T21:48:10.589Z,75.00
2022-12-19T21:53:10.539Z,76.00
2022-12-19T21:58:10.472Z,78.00
2022-12-19T22:03:15.219Z,76.00
2022-12-19T22:08:11.355Z,75.00
2022-12-19T22:13:10.302Z,75.00
2022-12-19T22:18:10.226Z,74.00
2022-12-19T22:23:13.369Z,77.00
2022-12-19T22:28:10.116Z,77.00
2022-12-19T22:33:10.058Z,76.00
2022-12-19T22:38:09.994Z,74.00
2022-12-19T22:43:09.950Z,73.00
2022-12-19T22:48:09.890Z,70.00
2022-12-19T22:53:12.944Z,71.00
2022-12-19T22:58:09.753Z,71.00
2022-12-19T23:03:09.861Z,71.00
2022-12-19T23:08:09.645Z,71.00
2022-12-19T23:13:09.573Z,71.00
2022-12-19T23:18:09.515Z,69.00
2022-12-19T23:23:09.460Z,69.00
2022-12-19T23:28:09.387Z,69.00
2022-12-19T23:33:09.343Z,69.00
2022-12-19T23:38:09.273Z,70.00
2022-12-19T23:43:09.224Z,70.00
2022-12-19T23:48:09.153Z,70.00
2022-12-19T23:53:09.096Z,69.00
2022-12-19T23:58:14.557Z,70.00
